Time;durP1;ratioP1;P1;durP2;ratioP2;P2;SDS_P1;SDS_P2;PMS_P1;PMS_P2;Temp;Humidity;BMP_temperature;BMP_pressure;BME280_temperature;BME280_humidity;BME280_pressure;Samples;Min_cycle;Max_cycle;Signal;HPM_P1;HPM_P2
2022/06/06 00:00:05;;;;;;;3.30;1.63;;;;;;;;;;4995159;28;20057;-69
2022/06/06 00:02:41;;;;;;;4.70;1.42;;;;;;;;;;4937241;28;20060;-69
2022/06/06 00:05:16;;;;;;;5.88;1.70;;;;;;;;;;4991614;28;20046;-68
2022/06/06 00:07:46;;;;;;;5.90;1.58;;;;;;;;;;4992011;28;20058;-68
2022/06/06 00:10:16;;;;;;;4.05;1.65;;;;;;;;;;4976269;28;20046;-70
2022/06/06 00:12:47;;;;;;;3.45;1.70;;;;;;;;;;4991711;28;20050;-68
2022/06/06 00:15:18;;;;;;;4.75;1.75;;;;;;;;;;4943369;28;20069;-68
2022/06/06 00:17:48;;;;;;;4.15;1.63;;;;;;;;;;4979390;28;20055;-69
2022/06/06 00:20:18;;;;;;;3.00;1.33;;;;;;;;;;4972442;28;20059;-68
2022/06/06 00:22:49;;;;;;;6.65;2.10;;;;;;;;;;4952601;29;20474;-70
2022/06/06 00:25:20;;;;;;;3.45;1.50;;;;;;;;;;4977847;28;20438;-68
2022/06/06 00:27:51;;;;;;;4.97;1.55;;;;;;;;;;4991645;28;20210;-68
2022/06/06 00:30:21;;;;;;;6.65;2.85;;;;;;;;;;4990677;28;20446;-68
2022/06/06 00:35:40;;;;;;;5.22;2.80;;;;;;;;;;4962810;28;20688;-68
2022/06/06 00:38:10;;;;;;;3.40;1.38;;;;;;;;;;5010966;28;20057;-70
2022/06/06 00:40:41;;;;;;;4.88;1.42;;;;;;;;;;5010668;28;20057;-69
2022/06/06 00:43:11;;;;;;;4.90;1.50;;;;;;;;;;5023551;28;20068;-68
2022/06/06 00:45:42;;;;;;;4.60;1.60;;;;;;;;;;5030545;28;20061;-68
2022/06/06 00:48:22;;;;;;;2.78;1.50;;;;;;;;;;5030682;28;20061;-69
2022/06/06 00:51:11;;;;;;;3.53;1.00;;;;;;;;;;4987134;28;20407;-71
2022/06/06 00:53:47;;;;;;;4.68;1.75;;;;;;;;;;4951773;28;20416;-68
2022/06/06 00:56:30;;;;;;;3.78;1.48;;;;;;;;;;4952420;28;20062;-67
2022/06/06 00:59:04;;;;;;;4.95;1.60;;;;;;;;;;4952098;28;20055;-68
2022/06/06 01:01:36;;;;;;;2.65;1.50;;;;;;;;;;4989362;28;20062;-68
2022/06/06 01:04:09;;;;;;;6.03;1.80;;;;;;;;;;5030058;28;20057;-68
2022/06/06 01:06:44;;;;;;;3.85;1.73;;;;;;;;;;4974189;28;20418;-68
2022/06/06 01:09:16;;;;;;;6.85;2.00;;;;;;;;;;4990570;28;20069;-67
2022/06/06 01:11:51;;;;;;;4.82;1.77;;;;;;;;;;4977389;28;20158;-69
2022/06/06 01:14:28;;;;;;;4.80;1.90;;;;;;;;;;4971057;28;20050;-68
2022/06/06 01:17:03;;;;;;;5.30;1.90;;;;;;;;;;4971147;28;20388;-70
2022/06/06 01:19:52;;;;;;;3.08;1.48;;;;;;;;;;4989789;28;20049;-68
2022/06/06 01:22:55;;;;;;;5.70;1.52;;;;;;;;;;4988646;28;20627;-68
2022/06/06 01:25:56;;;;;;;4.43;1.45;;;;;;;;;;4913404;29;20163;-67
2022/06/06 01:28:45;;;;;;;4.05;1.42;;;;;;;;;;4913643;29;20048;-69
2022/06/06 01:31:36;;;;;;;4.47;1.30;;;;;;;;;;4938430;28;20051;-68
2022/06/06 01:34:09;;;;;;;6.18;1.30;;;;;;;;;;4899664;29;20091;-69
2022/06/06 01:36:41;;;;;;;3.00;1.45;;;;;;;;;;4916410;29;20051;-68
2022/06/06 01:39:12;;;;;;;3.35;1.70;;;;;;;;;;4916410;29;20431;-68
2022/06/06 01:41:59;;;;;;;4.00;1.60;;;;;;;;;;4931653;29;20051;-68
2022/06/06 01:44:45;;;;;;;;;;;;;;;;;;4932654;29;20055;-68
2022/06/06 01:47:32;;;;;;;4.32;1.33;;;;;;;;;;4932485;29;19922;-68
2022/06/06 01:50:05;;;;;;;3.40;1.55;;;;;;;;;;4930447;29;20055;-71
2022/06/06 01:53:01;;;;;;;3.67;1.40;;;;;;;;;;4994546;28;20050;-68
2022/06/06 01:55:33;;;;;;;7.15;1.52;;;;;;;;;;4977239;28;20098;-69
2022/06/06 01:58:06;;;;;;;;;;;;;;;;;;5009812;28;20400;-69
2022/06/06 02:00:38;;;;;;;3.35;1.35;;;;;;;;;;4989682;28;19921;-68
2022/06/06 02:03:09;;;;;;;4.13;1.73;;;;;;;;;;5005198;28;20437;-68
2022/06/06 02:05:39;;;;;;;4.53;1.50;;;;;;;;;;4976284;28;20508;-68
2022/06/06 02:08:11;;;;;;;4.75;1.50;;;;;;;;;;5009643;28;20536;-68
2022/06/06 02:10:42;;;;;;;10.05;1.85;;;;;;;;;;4986295;28;20053;-68
2022/06/06 02:13:13;;;;;;;4.93;1.73;;;;;;;;;;5048907;28;20065;-68
2022/06/06 02:15:44;;;;;;;3.50;1.33;;;;;;;;;;5015792;28;20476;-68
2022/06/06 02:18:16;;;;;;;4.65;1.70;;;;;;;;;;5048799;28;20053;-68
2022/06/06 02:20:46;;;;;;;2.53;1.52;;;;;;;;;;5048986;28;20060;-68
2022/06/06 02:23:17;;;;;;;5.93;2.03;;;;;;;;;;5048619;28;20048;-68
2022/06/06 02:25:47;;;;;;;11.10;2.22;;;;;;;;;;5048637;28;20053;-68
2022/06/06 02:28:18;;;;;;;7.53;2.17;;;;;;;;;;5015908;28;20061;-68
2022/06/06 02:30:49;;;;;;;4.75;1.23;;;;;;;;;;5032178;28;20075;-67
2022/06/06 02:33:20;;;;;;;3.72;1.33;;;;;;;;;;5048669;28;20049;-68
2022/06/06 02:35:50;;;;;;;3.53;1.58;;;;;;;;;;5015915;28;20727;-68
2022/06/06 02:38:21;;;;;;;4.38;1.17;;;;;;;;;;5059360;28;20048;-67
2022/06/06 02:40:52;;;;;;;5.75;1.63;;;;;;;;;;5068626;28;20064;-69
2022/06/06 02:43:22;;;;;;;7.45;2.05;;;;;;;;;;5018805;28;20714;-68
2022/06/06 02:45:53;;;;;;;5.22;1.83;;;;;;;;;;5048511;28;20057;-68
2022/06/06 02:48:23;;;;;;;2.58;1.35;;;;;;;;;;4998996;28;20099;-67
2022/06/06 02:50:53;;;;;;;3.90;1.23;;;;;;;;;;5015265;28;20052;-67
2022/06/06 02:53:23;;;;;;;3.42;1.55;;;;;;;;;;5009466;28;20052;-67
2022/06/06 02:55:56;;;;;;;3.40;1.23;;;;;;;;;;5072638;28;20057;-68
2022/06/06 02:58:28;;;;;;;6.18;2.35;;;;;;;;;;5022867;28;20057;-68
2022/06/06 03:01:06;;;;;;;3.70;1.13;;;;;;;;;;5022906;28;20056;-71
2022/06/06 03:03:37;;;;;;;2.65;1.30;;;;;;;;;;5072645;28;20056;-68
2022/06/06 03:06:20;;;;;;;3.22;1.42;;;;;;;;;;5072726;28;20045;-67
2022/06/06 03:09:21;;;;;;;4.47;1.20;;;;;;;;;;5039170;28;20053;-67
2022/06/06 03:12:06;;;;;;;3.60;3.00;;;;;;;;;;5052269;28;20378;-67
2022/06/06 03:15:07;;;;;;;3.85;1.50;;;;;;;;;;5052534;28;20045;-67
2022/06/06 03:21:02;;;;;;;2.30;1.20;;;;;;;;;;5002512;28;20532;-68
2022/06/06 03:23:50;;;;;;;5.47;1.23;;;;;;;;;;5072011;28;20056;-68
2022/06/06 03:26:38;;;;;;;3.20;1.40;;;;;;;;;;5059046;28;20063;-68
2022/06/06 03:29:15;;;;;;;6.05;1.35;;;;;;;;;;5092333;28;20067;-68
2022/06/06 03:32:13;;;;;;;4.88;1.30;;;;;;;;;;5071626;28;20041;-68
2022/06/06 03:35:24;;;;;;;4.30;1.70;;;;;;;;;;5071956;28;20060;-68
2022/06/06 03:38:29;;;;;;;3.03;1.20;;;;;;;;;;4992270;28;20058;-69
2022/06/06 03:41:21;;;;;;;2.58;1.15;;;;;;;;;;4956671;28;20049;-71
2022/06/06 03:43:51;;;;;;;3.83;1.23;;;;;;;;;;4972893;28;21303;-69
2022/06/06 03:46:46;;;;;;;4.78;1.35;;;;;;;;;;4973108;28;20055;-69
2022/06/06 03:49:33;;;;;;;4.03;1.17;;;;;;;;;;4981146;28;20057;-69
2022/06/06 03:52:32;;;;;;;3.25;1.15;;;;;;;;;;4960347;28;20077;-70
2022/06/06 03:55:32;;;;;;;4.78;1.50;;;;;;;;;;4991892;28;20490;-69
2022/06/06 03:58:04;;;;;;;3.92;1.33;;;;;;;;;;4959759;28;20507;-71
2022/06/06 04:00:35;;;;;;;3.75;1.10;;;;;;;;;;4992190;28;20062;-69
2022/06/06 04:03:07;;;;;;;3.33;1.10;;;;;;;;;;4991800;28;20054;-69
2022/06/06 04:05:39;;;;;;;3.80;1.23;;;;;;;;;;4990730;28;20054;-69
2022/06/06 04:08:10;;;;;;;2.80;1.30;;;;;;;;;;4991933;28;20078;-69
2022/06/06 04:11:15;;;;;;;4.40;1.20;;;;;;;;;;4953109;28;20055;-68
2022/06/06 04:14:19;;;;;;;6.40;1.50;;;;;;;;;;4904581;29;20059;-68
2022/06/06 04:17:28;;;;;;;3.60;1.25;;;;;;;;;;4934045;29;20056;-69
2022/06/06 04:20:06;;;;;;;3.58;1.30;;;;;;;;;;4952500;29;20051;-69
2022/06/06 04:23:01;;;;;;;6.28;1.40;;;;;;;;;;4953083;29;20522;-73
2022/06/06 04:25:44;;;;;;;3.15;1.30;;;;;;;;;;4933425;29;20051;-69
2022/06/06 04:28:46;;;;;;;4.90;1.33;;;;;;;;;;4933551;29;20059;-69
2022/06/06 04:31:25;;;;;;;4.30;1.60;;;;;;;;;;4913974;29;20401;-68
2022/06/06 04:33:54;;;;;;;;;;;;;;;;;;4865281;29;20064;-69
2022/06/06 04:36:52;;;;;;;4.40;1.23;;;;;;;;;;4895723;29;19927;-69
2022/06/06 04:39:51;;;;;;;3.50;1.30;;;;;;;;;;4895886;29;20390;-69
2022/06/06 04:42:53;;;;;;;4.47;2.03;;;;;;;;;;4895494;29;20053;-69
2022/06/06 04:45:43;;;;;;;3.25;1.42;;;;;;;;;;4876468;29;20498;-68
2022/06/06 04:48:27;;;;;;;3.25;1.65;;;;;;;;;;4876605;29;20395;-69
2022/06/06 04:51:13;;;;;;;4.28;1.58;;;;;;;;;;4875742;29;20061;-68
2022/06/06 04:53:48;;;;;;;4.95;1.23;;;;;;;;;;4876921;29;20128;-69
2022/06/06 04:56:20;;;;;;;3.40;1.60;;;;;;;;;;4830497;29;20053;-70
2022/06/06 04:58:53;;;;;;;2.03;1.20;;;;;;;;;;4910699;29;20044;-71
2022/06/06 05:01:24;;;;;;;3.78;1.35;;;;;;;;;;4895507;29;20068;-69
2022/06/06 05:03:55;;;;;;;5.57;1.30;;;;;;;;;;4913688;29;20048;-69
2022/06/06 05:06:52;;;;;;;3.88;1.40;;;;;;;;;;4914299;29;20060;-70
2022/06/06 05:09:46;;;;;;;4.82;1.40;;;;;;;;;;4900964;29;20061;-69
2022/06/06 05:12:50;;;;;;;3.63;2.00;;;;;;;;;;4856685;29;20403;-69
2022/06/06 05:15:57;;;;;;;5.72;1.25;;;;;;;;;;5129632;27;20487;-71
2022/06/06 05:19:10;;;;;;;2.03;1.02;;;;;;;;;;5129448;28;20043;-68
2022/06/06 05:21:43;;;;;;;3.50;1.45;;;;;;;;;;5129640;28;20510;-68
2022/06/06 05:24:37;;;;;;;6.38;1.45;;;;;;;;;;5093616;28;20051;-69
2022/06/06 05:27:29;;;;;;;4.03;1.55;;;;;;;;;;5126541;28;20410;-69
2022/06/06 05:30:10;;;;;;;6.03;1.40;;;;;;;;;;5126766;28;20507;-67
2022/06/06 05:32:54;;;;;;;5.60;1.27;;;;;;;;;;5126986;28;20059;-68
2022/06/06 05:36:00;;;;;;;4.28;1.60;;;;;;;;;;5110033;28;20450;-68
2022/06/06 05:38:39;;;;;;;6.32;1.98;;;;;;;;;;5126666;28;20865;-68
2022/06/06 05:41:28;;;;;;;2.72;1.30;;;;;;;;;;5106027;28;20056;-68
2022/06/06 05:44:16;;;;;;;2.20;1.13;;;;;;;;;;5106141;28;20063;-69
2022/06/06 05:46:58;;;;;;;5.38;1.48;;;;;;;;;;5106208;28;20056;-75
2022/06/06 05:49:50;;;;;;;3.55;1.35;;;;;;;;;;5045451;28;20048;-68
2022/06/06 05:52:56;;;;;;;4.22;1.50;;;;;;;;;;5028106;28;20049;-69
2022/06/06 05:55:52;;;;;;;3.95;1.70;;;;;;;;;;5044878;28;20041;-68
2022/06/06 05:58:57;;;;;;;5.13;1.60;;;;;;;;;;5045283;28;20449;-69
2022/06/06 06:01:54;;;;;;;4.22;1.35;;;;;;;;;;5012133;28;20061;-69
2022/06/06 06:04:37;;;;;;;;;;;;;;;;;;5038686;28;20494;-69
2022/06/06 06:07:25;;;;;;;6.80;1.30;;;;;;;;;;5025385;28;19928;-69
2022/06/06 06:10:09;;;;;;;3.58;1.35;;;;;;;;;;5025531;28;20061;-69
2022/06/06 06:13:05;;;;;;;9.80;1.73;;;;;;;;;;5025406;28;20046;-68
2022/06/06 06:15:40;;;;;;;3.83;1.30;;;;;;;;;;4976323;28;20075;-70
2022/06/06 06:18:32;;;;;;;4.32;1.40;;;;;;;;;;5018569;28;20057;-68
2022/06/06 06:21:10;;;;;;;5.25;1.40;;;;;;;;;;5064506;28;20059;-68
2022/06/06 06:23:50;;;;;;;6.18;1.40;;;;;;;;;;5064824;28;20064;-70
2022/06/06 06:26:22;;;;;;;4.57;1.38;;;;;;;;;;4998477;28;20453;-70
2022/06/06 06:28:54;;;;;;;5.47;1.38;;;;;;;;;;5011740;28;20061;-71
2022/06/06 06:31:42;;;;;;;5.40;1.52;;;;;;;;;;5012074;28;20528;-70
2022/06/06 06:34:24;;;;;;;5.55;1.25;;;;;;;;;;5011491;28;20076;-69
2022/06/06 06:37:25;;;;;;;2.90;1.33;;;;;;;;;;5011941;28;20057;-69
2022/06/06 06:40:21;;;;;;;3.80;1.30;;;;;;;;;;5011796;28;20054;-69
2022/06/06 06:43:10;;;;;;;2.33;1.17;;;;;;;;;;5044206;28;20064;-69
2022/06/06 06:45:50;;;;;;;2.85;1.23;;;;;;;;;;5018169;28;20059;-70
2022/06/06 06:48:45;;;;;;;6.78;1.70;;;;;;;;;;5051192;28;20053;-69
2022/06/06 06:51:47;;;;;;;7.43;1.50;;;;;;;;;;5051114;28;20075;-69
2022/06/06 06:54:27;;;;;;;3.30;1.35;;;;;;;;;;4995102;28;20068;-69
2022/06/06 06:57:24;;;;;;;3.72;1.48;;;;;;;;;;4991391;28;20161;-69
2022/06/06 07:00:23;;;;;;;4.75;1.58;;;;;;;;;;4978382;28;20062;-69
2022/06/06 07:09:35;;;;;;;6.07;1.70;;;;;;;;;;5030964;28;20061;-68
2022/06/06 07:12:42;;;;;;;7.55;1.52;;;;;;;;;;4944709;29;20058;-69
2022/06/06 07:15:21;;;;;;;6.53;1.35;;;;;;;;;;4876428;29;20077;-69
2022/06/06 07:17:58;;;;;;;4.68;1.83;;;;;;;;;;4877006;29;20494;-69
2022/06/06 07:20:30;;;;;;;5.25;1.35;;;;;;;;;;4876922;29;20053;-69
2022/06/06 07:23:05;;;;;;;3.45;1.55;;;;;;;;;;4839444;29;20050;-70
2022/06/06 07:25:44;;;;;;;7.25;1.63;;;;;;;;;;4839889;29;20058;-69
2022/06/06 07:28:18;;;;;;;7.72;1.45;;;;;;;;;;4839716;29;20062;-70
2022/06/06 07:30:58;;;;;;;3.03;1.60;;;;;;;;;;4831009;29;20054;-70
2022/06/06 07:34:03;;;;;;;5.43;1.58;;;;;;;;;;4822699;29;20065;-70
2022/06/06 07:37:10;;;;;;;4.45;1.33;;;;;;;;;;4827033;29;20062;-71
2022/06/06 07:40:01;;;;;;;5.32;1.90;;;;;;;;;;4827530;29;20049;-69
2022/06/06 07:42:49;;;;;;;5.85;1.73;;;;;;;;;;4858091;29;20060;-70
2022/06/06 07:45:31;;;;;;;4.55;1.30;;;;;;;;;;4840708;29;20058;-68
2022/06/06 07:48:08;;;;;;;5.18;1.73;;;;;;;;;;4820578;29;20385;-70
2022/06/06 07:50:47;;;;;;;5.05;1.67;;;;;;;;;;4908963;29;20052;-69
2022/06/06 07:53:36;;;;;;;6.30;1.60;;;;;;;;;;4950848;28;20062;-70
2022/06/06 07:56:23;;;;;;;11.55;2.00;;;;;;;;;;4931924;29;20075;-69
2022/06/06 07:58:59;;;;;;;3.47;1.60;;;;;;;;;;4932909;29;20515;-69
2022/06/06 08:01:57;;;;;;;6.60;1.95;;;;;;;;;;4948441;28;20530;-68
2022/06/06 08:04:55;;;;;;;8.27;1.90;;;;;;;;;;4971270;28;20419;-69
2022/06/06 08:07:34;;;;;;;3.33;1.42;;;;;;;;;;4909849;29;20067;-70
2022/06/06 08:10:13;;;;;;;;;;;;;;;;;;4894930;29;20060;-69
2022/06/06 08:13:00;;;;;;;6.88;1.33;;;;;;;;;;4894747;29;19923;-69
2022/06/06 08:15:52;;;;;;;4.35;1.60;;;;;;;;;;4912884;29;20044;-69
2022/06/06 08:18:40;;;;;;;4.80;2.17;;;;;;;;;;4913183;29;20060;-69
2022/06/06 08:21:30;;;;;;;3.88;1.60;;;;;;;;;;4932031;29;20047;-71
2022/06/06 08:24:03;;;;;;;4.15;1.40;;;;;;;;;;4916336;29;20082;-70
2022/06/06 08:26:55;;;;;;;5.55;1.73;;;;;;;;;;4918573;29;20614;-69
2022/06/06 08:29:28;;;;;;;4.85;1.50;;;;;;;;;;4950991;29;20060;-69
2022/06/06 08:31:58;;;;;;;5.05;1.50;;;;;;;;;;4931647;29;20056;-69
2022/06/06 08:34:28;;;;;;;4.15;1.60;;;;;;;;;;4962181;28;20054;-69
2022/06/06 08:37:09;;;;;;;5.13;1.55;;;;;;;;;;4970299;28;20051;-71
2022/06/06 08:39:40;;;;;;;6.47;1.80;;;;;;;;;;4950976;29;20055;-71
2022/06/06 08:42:25;;;;;;;9.75;1.80;;;;;;;;;;4951057;29;20411;-71
2022/06/06 08:45:20;;;;;;;6.90;2.05;;;;;;;;;;4984271;28;20065;-68
2022/06/06 08:48:05;;;;;;;4.88;1.70;;;;;;;;;;4996356;28;20417;-69
2022/06/06 08:50:59;;;;;;;6.78;1.48;;;;;;;;;;5028744;28;20049;-70
2022/06/06 08:53:52;;;;;;;3.92;1.60;;;;;;;;;;5041569;28;20511;-70
2022/06/06 08:56:59;;;;;;;3.78;1.80;;;;;;;;;;5015483;28;20533;-70
2022/06/06 08:59:53;;;;;;;4.00;1.45;;;;;;;;;;5048891;28;20448;-70
2022/06/06 09:03:01;;;;;;;3.70;1.58;;;;;;;;;;5048831;28;20060;-70
2022/06/06 09:05:56;;;;;;;4.45;1.50;;;;;;;;;;5048391;28;20061;-69
2022/06/06 09:08:47;;;;;;;5.05;1.95;;;;;;;;;;5049306;28;20095;-71
2022/06/06 09:11:17;;;;;;;7.20;2.05;;;;;;;;;;5068683;28;20515;-69
2022/06/06 09:14:06;;;;;;;3.72;1.67;;;;;;;;;;5052000;28;20057;-73
2022/06/06 09:17:03;;;;;;;5.10;2.00;;;;;;;;;;5073279;28;20059;-69
2022/06/06 09:19:57;;;;;;;4.68;1.90;;;;;;;;;;5031574;28;20594;-69
2022/06/06 09:22:44;;;;;;;5.60;1.60;;;;;;;;;;5048218;28;20592;-70
2022/06/06 09:25:36;;;;;;;7.00;2.03;;;;;;;;;;4999080;28;20683;-70
2022/06/06 09:28:12;;;;;;;4.18;1.85;;;;;;;;;;5048720;28;20148;-71
2022/06/06 09:30:48;;;;;;;4.40;1.75;;;;;;;;;;5048252;28;20056;-70
2022/06/06 09:33:46;;;;;;;3.08;1.50;;;;;;;;;;5048729;28;20401;-69
2022/06/06 09:36:38;;;;;;;7.75;1.77;;;;;;;;;;5048463;28;20041;-69
2022/06/06 09:39:48;;;;;;;2.92;1.50;;;;;;;;;;5015580;28;20501;-71
2022/06/06 09:42:38;;;;;;;4.75;1.83;;;;;;;;;;5048798;28;20521;-69
2022/06/06 09:45:29;;;;;;;6.53;1.83;;;;;;;;;;5028222;28;20049;-70
2022/06/06 09:48:32;;;;;;;8.80;2.17;;;;;;;;;;5008327;28;20430;-69
2022/06/06 09:51:20;;;;;;;7.35;1.52;;;;;;;;;;4930756;29;20043;-69
2022/06/06 10:01:05;;;;;;;7.82;2.90;;;;;;;;;;4896912;29;20855;-70
2022/06/06 10:04:08;;;;;;;4.45;2.35;;;;;;;;;;4915774;29;20097;-69
2022/06/06 10:07:06;;;;;;;4.18;1.77;;;;;;;;;;4915103;29;20052;-68
2022/06/06 10:09:56;;;;;;;7.82;1.80;;;;;;;;;;4915372;29;20056;-69
2022/06/06 10:12:41;;;;;;;5.43;1.67;;;;;;;;;;4915461;29;20052;-69
2022/06/06 10:15:20;;;;;;;7.82;1.65;;;;;;;;;;4915168;29;20421;-70
2022/06/06 10:18:25;;;;;;;6.68;1.75;;;;;;;;;;4883962;29;20191;-70
2022/06/06 10:21:17;;;;;;;4.80;1.80;;;;;;;;;;4858219;29;20073;-67
2022/06/06 10:24:17;;;;;;;5.00;2.15;;;;;;;;;;4824205;29;20537;-68
2022/06/06 10:27:03;;;;;;;4.35;1.92;;;;;;;;;;4860765;29;20564;-67
2022/06/06 10:32:58;;;;;;;5.93;2.53;;;;;;;;;;4969003;28;20062;-69
2022/06/06 10:35:57;;;;;;;7.85;2.65;;;;;;;;;;4972575;28;20059;-68
2022/06/06 10:38:34;;;;;;;7.68;2.47;;;;;;;;;;4972566;28;20051;-68
2022/06/06 10:41:31;;;;;;;4.50;2.22;;;;;;;;;;4972554;28;20050;-68
2022/06/06 10:44:38;;;;;;;7.00;2.53;;;;;;;;;;4955242;28;20054;-68
2022/06/06 10:47:15;;;;;;;6.05;2.60;;;;;;;;;;4967705;28;20799;-67
2022/06/06 10:49:59;;;;;;;6.72;2.70;;;;;;;;;;4982203;28;20057;-71
2022/06/06 10:52:29;;;;;;;8.02;3.17;;;;;;;;;;5031290;28;20049;-69
2022/06/06 10:55:07;;;;;;;9.45;3.30;;;;;;;;;;5052193;28;20056;-67
2022/06/06 10:57:43;;;;;;;8.95;3.03;;;;;;;;;;5091128;28;20055;-67
2022/06/06 11:00:23;;;;;;;6.43;2.80;;;;;;;;;;5100245;28;20067;-68
2022/06/06 11:03:13;;;;;;;8.32;3.78;;;;;;;;;;5111283;28;20117;-67
2022/06/06 11:05:58;;;;;;;6.88;3.38;;;;;;;;;;5061059;28;20061;-70
2022/06/06 11:09:02;;;;;;;8.18;3.10;;;;;;;;;;5036577;28;20135;-69
2022/06/06 11:12:01;;;;;;;8.35;3.85;;;;;;;;;;4997956;28;20057;-69
2022/06/06 11:14:44;;;;;;;7.15;3.15;;;;;;;;;;5030398;28;20526;-69
2022/06/06 11:17:29;;;;;;;12.27;3.60;;;;;;;;;;5030347;28;20053;-69
2022/06/06 11:20:29;;;;;;;6.97;2.92;;;;;;;;;;5030347;28;20053;-67
2022/06/06 11:23:24;;;;;;;5.97;2.97;;;;;;;;;;5017687;28;20061;-67
2022/06/06 11:26:14;;;;;;;7.88;3.22;;;;;;;;;;5030364;28;20064;-69
2022/06/06 11:29:18;;;;;;;6.30;2.85;;;;;;;;;;5030174;28;20057;-67
2022/06/06 11:32:09;;;;;;;7.25;3.10;;;;;;;;;;4997595;28;20120;-67
2022/06/06 11:35:05;;;;;;;6.35;3.30;;;;;;;;;;5013180;28;20064;-67
2022/06/06 11:38:23;;;;;;;6.18;3.47;;;;;;;;;;5029996;28;20046;-69
2022/06/06 11:41:07;;;;;;;7.63;4.47;;;;;;;;;;4990749;28;20458;-68
2022/06/06 11:43:52;;;;;;;9.32;3.05;;;;;;;;;;4990244;28;20042;-68
2022/06/06 11:46:49;;;;;;;8.05;3.38;;;;;;;;;;4965095;28;20153;-70
2022/06/06 11:49:53;;;;;;;9.60;3.50;;;;;;;;;;5029495;28;20057;-70
2022/06/06 11:53:00;;;;;;;8.77;4.90;;;;;;;;;;4977591;28;20461;-70
2022/06/06 11:55:41;;;;;;;9.40;3.58;;;;;;;;;;5009877;28;20062;-69
2022/06/06 11:58:17;;;;;;;17.15;6.30;;;;;;;;;;4994396;28;20057;-68
2022/06/06 12:00:47;;;;;;;15.63;6.05;;;;;;;;;;5018375;28;20076;-68
2022/06/06 12:03:53;;;;;;;13.23;5.93;;;;;;;;;;5022281;28;20521;-68
2022/06/06 12:06:51;;;;;;;8.27;3.67;;;;;;;;;;5031949;28;20520;-68
2022/06/06 12:09:54;;;;;;;9.90;3.67;;;;;;;;;;4989576;28;20074;-68
2022/06/06 12:13:02;;;;;;;7.93;3.40;;;;;;;;;;4951138;29;20047;-68
2022/06/06 12:15:58;;;;;;;9.35;3.85;;;;;;;;;;4998296;28;20477;-68
2022/06/06 12:18:31;;;;;;;8.65;3.90;;;;;;;;;;4973596;28;20054;-69
2022/06/06 12:21:10;;;;;;;8.52;3.72;;;;;;;;;;4973446;28;20487;-69
2022/06/06 12:24:13;;;;;;;7.97;3.60;;;;;;;;;;4989608;28;20112;-71
2022/06/06 12:27:05;;;;;;;9.55;4.13;;;;;;;;;;4988486;28;20065;-68
2022/06/06 12:29:47;;;;;;;8.75;4.60;;;;;;;;;;4972400;28;20042;-68
2022/06/06 12:32:48;;;;;;;12.27;4.38;;;;;;;;;;4964854;28;20499;-68
2022/06/06 12:35:59;;;;;;;10.07;4.72;;;;;;;;;;4955862;28;20059;-67
2022/06/06 12:38:44;;;;;;;12.77;4.75;;;;;;;;;;4966758;28;20051;-69
2022/06/06 12:41:14;;;;;;;;;;;;;;;;;;4954331;28;20063;-73
2022/06/06 12:44:26;;;;;;;11.07;4.82;;;;;;;;;;4967856;28;19937;-69
2022/06/06 12:47:34;;;;;;;11.10;5.93;;;;;;;;;;4902431;29;20060;-69
2022/06/06 12:50:29;;;;;;;11.73;5.35;;;;;;;;;;4902761;29;20048;-69
2022/06/06 12:53:20;;;;;;;14.75;5.50;;;;;;;;;;4912707;29;20068;-69
2022/06/06 12:56:26;;;;;;;8.50;4.93;;;;;;;;;;4927028;28;20043;-69
2022/06/06 12:59:25;;;;;;;12.35;4.85;;;;;;;;;;4956140;28;20047;-69
2022/06/06 13:02:11;;;;;;;10.73;5.90;;;;;;;;;;4927987;29;20055;-69
2022/06/06 13:04:48;;;;;;;10.25;4.43;;;;;;;;;;4912504;29;20444;-69
2022/06/06 13:07:37;;;;;;;11.40;4.43;;;;;;;;;;4881103;29;20532;-69
2022/06/06 13:10:29;;;;;;;7.82;3.90;;;;;;;;;;4923128;29;20063;-69
2022/06/06 13:13:37;;;;;;;8.93;3.63;;;;;;;;;;4930551;29;20059;-69
2022/06/06 13:16:43;;;;;;;7.85;3.30;;;;;;;;;;4930427;29;20050;-68
2022/06/06 13:19:34;;;;;;;12.32;4.03;;;;;;;;;;5008726;28;20054;-70
2022/06/06 13:22:17;;;;;;;7.32;4.20;;;;;;;;;;5011179;28;20054;-68
2022/06/06 13:24:53;;;;;;;7.53;3.75;;;;;;;;;;4992157;28;20072;-70
2022/06/06 13:27:51;;;;;;;8.85;3.97;;;;;;;;;;5038077;28;20052;-69
2022/06/06 13:30:25;;;;;;;5.47;3.05;;;;;;;;;;4992273;28;20561;-69
2022/06/06 13:33:43;;;;;;;8.18;4.00;;;;;;;;;;4996761;28;20108;-69
2022/06/06 13:36:45;;;;;;;13.75;8.45;;;;;;;;;;4920708;29;20047;-72
2022/06/06 13:39:16;;;;;;;8.05;3.90;;;;;;;;;;4968620;28;20057;-72
2022/06/06 13:42:04;;;;;;;6.18;2.92;;;;;;;;;;4960702;28;20098;-69
2022/06/06 13:44:51;;;;;;;6.57;2.80;;;;;;;;;;4993107;28;20057;-69
2022/06/06 13:47:51;;;;;;;6.75;2.47;;;;;;;;;;4992816;28;20058;-68
2022/06/06 13:50:48;;;;;;;11.18;4.28;;;;;;;;;;4847803;29;20084;-68
2022/06/06 13:53:47;;;;;;;7.95;3.50;;;;;;;;;;4843943;29;20580;-68
2022/06/06 13:56:28;;;;;;;6.50;3.22;;;;;;;;;;4873122;29;20465;-72
2022/06/06 13:59:20;;;;;;;9.30;2.75;;;;;;;;;;4869392;29;20052;-68
2022/06/06 14:02:28;;;;;;;4.18;2.10;;;;;;;;;;4862376;29;20062;-68
2022/06/06 14:05:18;;;;;;;7.78;3.88;;;;;;;;;;4874106;29;20053;-67
2022/06/06 14:07:55;;;;;;;21.13;9.20;;;;;;;;;;4868729;29;20502;-68
2022/06/06 14:10:57;;;;;;;39.80;15.07;;;;;;;;;;4872739;29;20057;-67
2022/06/06 14:13:44;;;;;;;8.23;3.35;;;;;;;;;;4880646;29;20068;-69
2022/06/06 14:16:45;;;;;;;9.43;4.40;;;;;;;;;;4915268;29;20060;-68
2022/06/06 14:19:22;;;;;;;4.45;2.10;;;;;;;;;;4894467;29;20198;-66
2022/06/06 14:22:01;;;;;;;8.70;1.90;;;;;;;;;;4878087;29;20064;-68
2022/06/06 14:24:55;;;;;;;9.27;5.40;;;;;;;;;;4863501;29;20415;-67
2022/06/06 14:27:40;;;;;;;4.13;2.45;;;;;;;;;;4919209;29;20047;-70
2022/06/06 14:30:29;;;;;;;4.63;2.33;;;;;;;;;;4918911;29;20539;-66
2022/06/06 14:33:01;;;;;;;4.68;1.80;;;;;;;;;;4918939;29;20058;-66
2022/06/06 14:35:38;;;;;;;5.88;2.33;;;;;;;;;;4887488;29;20567;-67
2022/06/06 14:38:27;;;;;;;4.63;1.38;;;;;;;;;;4933935;28;20416;-70
2022/06/06 14:41:08;;;;;;;4.50;1.48;;;;;;;;;;4924573;28;20062;-70
2022/06/06 14:44:05;;;;;;;7.28;1.80;;;;;;;;;;4972221;28;20455;-68
2022/06/06 14:46:52;;;;;;;6.13;2.50;;;;;;;;;;4933455;29;20062;-68
2022/06/06 14:49:31;;;;;;;5.20;2.58;;;;;;;;;;4933870;29;20063;-66
2022/06/06 14:52:22;;;;;;;3.45;1.77;;;;;;;;;;4936646;29;20055;-64
2022/06/06 14:54:59;;;;;;;7.80;3.15;;;;;;;;;;4960034;28;20522;-64
2022/06/06 14:57:32;;;;;;;2.63;1.17;;;;;;;;;;4994299;28;20573;-65
2022/06/06 15:00:09;;;;;;;4.18;2.10;;;;;;;;;;4991394;28;20054;-64
2022/06/06 15:03:04;;;;;;;4.30;2.75;;;;;;;;;;4991989;28;20462;-66
2022/06/06 15:05:36;;;;;;;12.38;4.13;;;;;;;;;;4991898;28;20058;-68
2022/06/06 15:08:29;;;;;;;5.10;1.88;;;;;;;;;;4960443;28;20065;-65
2022/06/06 15:11:06;;;;;;;4.95;2.00;;;;;;;;;;4991435;28;20062;-65
2022/06/06 15:13:37;;;;;;;8.57;1.67;;;;;;;;;;4990902;28;20059;-65
2022/06/06 15:16:10;;;;;;;3.03;1.95;;;;;;;;;;4942976;28;20530;-65
2022/06/06 15:19:02;;;;;;;2.30;0.90;;;;;;;;;;4991351;28;20065;-65
2022/06/06 15:21:40;;;;;;;3.35;0.90;;;;;;;;;;4994333;28;20410;-64
2022/06/06 15:24:35;;;;;;;6.88;1.00;;;;;;;;;;5032987;28;20052;-65
2022/06/06 15:27:33;;;;;;;1.70;0.80;;;;;;;;;;5010809;28;20089;-66
2022/06/06 15:30:36;;;;;;;1.73;1.00;;;;;;;;;;5010649;28;20072;-67
2022/06/06 15:33:34;;;;;;;1.67;0.90;;;;;;;;;;5010643;28;20433;-67
2022/06/06 15:36:13;;;;;;;1.10;0.50;;;;;;;;;;5010612;28;20069;-66
2022/06/06 15:38:57;;;;;;;;;;;;;;;;;;5010874;28;20050;-67
2022/06/06 15:41:45;;;;;;;1.45;0.73;;;;;;;;;;5010265;28;19929;-67
2022/06/06 15:44:40;;;;;;;1.02;0.50;;;;;;;;;;5010898;28;20057;-65
2022/06/06 15:47:23;;;;;;;0.60;0.40;;;;;;;;;;5010567;28;20054;-67
2022/06/06 15:50:10;;;;;;;1.25;0.20;;;;;;;;;;5010291;28;20049;-67
2022/06/06 15:52:59;;;;;;;1.20;0.50;;;;;;;;;;5030239;28;20465;-67
2022/06/06 15:55:43;;;;;;;1.92;0.45;;;;;;;;;;4923114;28;20058;-67
2022/06/06 15:58:44;;;;;;;2.72;0.60;;;;;;;;;;4970233;28;20058;-67
2022/06/06 16:02:05;;;;;;;0.95;0.55;;;;;;;;;;4971011;28;20169;-68
2022/06/06 16:04:42;;;;;;;1.80;0.80;;;;;;;;;;4948220;28;20546;-70
2022/06/06 16:07:27;;;;;;;2.35;0.80;;;;;;;;;;4956269;28;20050;-68
2022/06/06 16:10:08;;;;;;;2.53;0.88;;;;;;;;;;4970960;28;20526;-68
2022/06/06 16:12:59;;;;;;;1.95;0.68;;;;;;;;;;4970862;28;20050;-70
2022/06/06 16:15:51;;;;;;;2.88;1.20;;;;;;;;;;4970904;28;20515;-69
2022/06/06 16:18:30;;;;;;;6.60;0.90;;;;;;;;;;4970699;28;20058;-69
2022/06/06 16:21:09;;;;;;;4.78;1.40;;;;;;;;;;4970875;28;20063;-67
2022/06/06 16:24:00;;;;;;;4.07;1.80;;;;;;;;;;4938587;28;21098;-68
2022/06/06 16:26:41;;;;;;;5.82;1.13;;;;;;;;;;4941402;28;20380;-68
2022/06/06 16:29:19;;;;;;;1.77;1.13;;;;;;;;;;4990036;28;20522;-68
2022/06/06 16:32:10;;;;;;;3.53;0.90;;;;;;;;;;4974225;28;20050;-68
2022/06/06 16:34:41;;;;;;;1.52;0.47;;;;;;;;;;5009686;28;20054;-68
2022/06/06 16:37:14;;;;;;;1.27;0.50;;;;;;;;;;5009545;28;20524;-70
2022/06/06 16:39:52;;;;;;;1.63;0.90;;;;;;;;;;5009642;28;20091;-68
2022/06/06 16:49:05;;;;;;;1.50;0.40;;;;;;;;;;5009427;28;20061;-67
2022/06/06 16:51:58;;;;;;;3.85;1.52;;;;;;;;;;5009334;28;20053;-66
2022/06/06 16:54:46;;;;;;;2.58;1.30;;;;;;;;;;5009835;28;20061;-69
2022/06/06 16:57:19;;;;;;;1.83;0.65;;;;;;;;;;5009307;28;20093;-67
2022/06/06 16:59:55;;;;;;;1.27;0.43;;;;;;;;;;5009134;28;20065;-67
2022/06/06 17:02:31;;;;;;;0.63;0.43;;;;;;;;;;5009083;28;20085;-69